createdAt,value
2018-03-14T00:04:06.408Z,4.7
2018-03-14T00:09:56.969Z,5.18
2018-03-14T00:15:47.678Z,6.05
2018-03-14T00:21:38.253Z,4.86
2018-03-14T00:27:28.856Z,5.57
2018-03-14T00:33:19.440Z,5.36
2018-03-14T00:39:10.090Z,5.45
2018-03-14T00:45:00.728Z,6.96
2018-03-14T00:50:51.343Z,5.7
2018-03-14T00:56:41.964Z,6.49
2018-03-14T01:02:32.559Z,8.04
2018-03-14T01:08:23.209Z,6.27
2018-03-14T01:14:13.884Z,8.2
2018-03-14T01:20:04.458Z,7.72
2018-03-14T01:25:55.123Z,6.83
2018-03-14T01:31:45.718Z,6.71
2018-03-14T01:37:36.317Z,7.33
2018-03-14T01:43:26.986Z,7.41
2018-03-14T01:49:17.595Z,7.67
2018-03-14T01:55:08.241Z,6.53
2018-03-14T02:00:58.809Z,6.91
2018-03-14T02:06:49.432Z,6.61
2018-03-14T02:12:40.051Z,6.06
2018-03-14T02:18:30.682Z,5.66
2018-03-14T02:24:21.307Z,6.03
2018-03-14T02:30:11.943Z,6.43
2018-03-14T02:36:02.583Z,6.88
2018-03-14T02:41:53.246Z,6.49
2018-03-14T02:47:43.815Z,6
2018-03-14T02:53:34.374Z,5.97
2018-03-14T02:59:25.008Z,6.6
2018-03-14T03:05:15.706Z,6.88
2018-03-14T03:11:06.250Z,5.44
2018-03-14T03:16:57.001Z,5.8
2018-03-14T03:22:47.471Z,5.84
2018-03-14T03:28:38.108Z,4.4
2018-03-14T03:34:28.722Z,6.13
2018-03-14T03:40:19.314Z,5.6
2018-03-14T03:46:09.935Z,6.03
2018-03-14T03:52:00.555Z,6.62
2018-03-14T03:57:51.174Z,6.11
2018-03-14T04:03:41.786Z,5.4
2018-03-14T04:09:32.401Z,5.92
2018-03-14T04:15:23.084Z,6.26
2018-03-14T04:21:13.622Z,5.96
2018-03-14T04:27:04.272Z,6.51
2018-03-14T04:32:54.899Z,6.07
2018-03-14T04:38:45.500Z,5.82
2018-03-14T04:44:36.147Z,5.31
2018-03-14T04:50:26.836Z,5.41
2018-03-14T04:56:17.298Z,6.63
2018-03-14T05:02:07.925Z,6.37
2018-03-14T05:07:58.530Z,6.99
2018-03-14T05:13:49.240Z,6.52
2018-03-14T05:19:39.763Z,6.35
2018-03-14T05:25:30.391Z,7.14
2018-03-14T05:31:21.033Z,6.49
2018-03-14T05:37:11.689Z,6.76
2018-03-14T05:43:02.251Z,6.45
2018-03-14T05:48:52.894Z,7.38
2018-03-14T05:54:43.480Z,6.94
2018-03-14T06:00:34.141Z,6.99
2018-03-14T06:06:24.737Z,6.7
2018-03-14T06:12:15.329Z,6.41
2018-03-14T06:18:05.995Z,6.34
2018-03-14T06:23:56.577Z,7.22
2018-03-14T06:29:47.239Z,8.59
2018-03-14T06:35:37.843Z,8.86
2018-03-14T06:41:28.506Z,10.31
2018-03-14T06:47:19.164Z,9.89
2018-03-14T06:53:09.688Z,7.59
2018-03-14T06:59:00.350Z,8.98
2018-03-14T07:04:50.998Z,7.99
2018-03-14T07:10:41.656Z,8.04
2018-03-14T07:16:32.194Z,7.24
2018-03-14T07:22:22.842Z,7
2018-03-14T07:28:13.442Z,6.58
2018-03-14T07:34:04.109Z,6.65
2018-03-14T07:39:54.737Z,8.47
2018-03-14T07:45:45.342Z,9.66
2018-03-14T07:51:35.949Z,8.33
2018-03-14T07:57:26.639Z,8.37
2018-03-14T08:03:17.249Z,6.82
2018-03-14T08:09:07.867Z,6.34
2018-03-14T08:14:58.491Z,7.01
2018-03-14T08:20:49.153Z,5.24
2018-03-14T08:26:39.784Z,5.53
2018-03-14T08:32:30.430Z,5.22
2018-03-14T08:38:21.108Z,5.81
2018-03-14T08:44:11.696Z,4.67
2018-03-14T08:50:02.453Z,4.62
2018-03-14T08:55:52.990Z,4.87
2018-03-14T09:01:43.672Z,5.46
2018-03-14T09:07:34.326Z,5.74
2018-03-14T09:13:24.989Z,5.74
2018-03-14T09:19:15.680Z,5.59
2018-03-14T09:25:06.256Z,5.28
2018-03-14T09:30:56.885Z,6.5
2018-03-14T09:36:47.553Z,4.67
2018-03-14T09:42:38.192Z,2.28
2018-03-14T09:48:28.914Z,2.25
2018-03-14T09:54:19.532Z,2.89
2018-03-14T10:00:10.232Z,2.44
2018-03-14T10:06:00.860Z,2.28
2018-03-14T10:11:51.550Z,2.21
2018-03-14T10:17:42.189Z,2.19
2018-03-14T10:23:32.841Z,1.99
2018-03-14T10:29:23.558Z,1.89
2018-03-14T10:35:14.282Z,1.67
2018-03-14T10:41:04.958Z,1.39
2018-03-14T10:46:55.551Z,1.44
2018-03-14T10:52:46.266Z,1.48
2018-03-14T10:58:37.000Z,1.81
2018-03-14T11:04:27.639Z,1.75
2018-03-14T11:10:18.304Z,1.4
2018-03-14T11:16:08.929Z,1.83
2018-03-14T11:21:59.669Z,0.97
2018-03-14T11:27:50.318Z,1.34
2018-03-14T11:33:40.991Z,1.36
2018-03-14T11:39:31.662Z,1.27
2018-03-14T11:45:22.344Z,1.4
2018-03-14T11:51:12.991Z,1.83
2018-03-14T11:57:03.693Z,1.19
2018-03-14T12:02:54.381Z,1.14
2018-03-14T12:08:45.042Z,1.8
2018-03-14T12:14:35.735Z,1.64
2018-03-14T12:20:26.428Z,0.8
2018-03-14T12:26:17.092Z,1.22
2018-03-14T12:32:07.783Z,1.29
2018-03-14T12:37:58.456Z,1.19
2018-03-14T12:43:49.172Z,1.46
2018-03-14T12:49:39.887Z,1.06
2018-03-14T12:55:30.531Z,1.41
2018-03-14T13:01:21.227Z,1.53
2018-03-14T13:07:12.012Z,1.23
2018-03-14T13:13:02.660Z,1
2018-03-14T13:18:53.294Z,1.39
2018-03-14T13:24:43.939Z,1.49
2018-03-14T13:30:34.711Z,1.19
2018-03-14T13:36:25.356Z,1.26
2018-03-14T13:42:16.084Z,1.43
2018-03-14T13:48:06.808Z,1.35
2018-03-14T13:53:57.553Z,1.42
2018-03-14T13:59:48.339Z,1.67
2018-03-14T14:05:39.116Z,1.09
2018-03-14T14:11:29.846Z,1.39
2018-03-14T14:17:20.569Z,1.43
2018-03-14T14:23:11.417Z,1.24
2018-03-14T14:29:02.094Z,1.24
2018-03-14T14:34:52.880Z,1.39
2018-03-14T14:40:43.603Z,1.66
2018-03-14T14:46:34.332Z,1.63
2018-03-14T14:52:25.111Z,0.99
2018-03-14T14:58:15.808Z,2
2018-03-14T15:04:06.560Z,2.17
2018-03-14T15:09:57.258Z,1.28
2018-03-14T15:15:48.026Z,1.86
2018-03-14T15:21:38.776Z,1.83
2018-03-14T15:27:29.500Z,1.69
2018-03-14T15:33:20.332Z,1.39
2018-03-14T15:39:11.011Z,1.63
2018-03-14T15:45:01.856Z,2.04
2018-03-14T15:50:52.415Z,1.92
2018-03-14T15:56:43.209Z,1.7
2018-03-14T16:02:33.906Z,1.56
2018-03-14T16:08:24.624Z,1.63
2018-03-14T16:14:15.351Z,1.98
2018-03-14T16:20:06.071Z,2.46
2018-03-14T16:25:56.799Z,2.97
2018-03-14T16:31:47.483Z,3.38
2018-03-14T16:37:38.113Z,1.26
2018-03-14T16:43:28.850Z,1.88
2018-03-14T16:49:19.445Z,1.8
2018-03-14T16:55:10.345Z,1.98
2018-03-14T17:01:00.880Z,1.25
2018-03-14T17:06:51.481Z,1.83
2018-03-14T17:12:42.254Z,1.94
2018-03-14T17:18:32.886Z,1.89
2018-03-14T17:24:23.560Z,1.76
2018-03-14T17:30:14.216Z,2.67
2018-03-14T17:36:04.829Z,2.23
2018-03-14T17:41:55.485Z,2.39
2018-03-14T17:47:46.176Z,3.01
2018-03-14T17:53:36.844Z,2.59
2018-03-14T17:59:27.545Z,3.81
2018-03-14T18:05:18.176Z,2.65
2018-03-14T18:11:08.808Z,2.15
2018-03-14T18:16:59.481Z,2.3
2018-03-14T18:22:50.188Z,3.26
2018-03-14T18:28:40.806Z,2.64
2018-03-14T18:34:31.486Z,3.22
2018-03-14T18:40:22.160Z,4.39
2018-03-14T18:46:12.794Z,4.28
2018-03-14T18:52:03.401Z,4.34
2018-03-14T18:57:54.012Z,4.51
2018-03-14T19:03:44.666Z,4.77
2018-03-14T19:09:35.395Z,4.53
2018-03-14T19:15:26.023Z,4.58
2018-03-14T19:21:16.606Z,5.12
2018-03-14T19:27:07.299Z,5.87
2018-03-14T19:32:57.935Z,8.75
2018-03-14T19:38:48.609Z,6.63
2018-03-14T19:44:39.206Z,7.26
2018-03-14T19:50:29.896Z,7.31
2018-03-14T19:56:20.568Z,7.73
2018-03-14T20:02:11.181Z,6.1
2018-03-14T20:08:01.824Z,6.85
2018-03-14T20:13:52.509Z,7.22
2018-03-14T20:19:43.084Z,7.56
2018-03-14T20:25:33.747Z,11.12
2018-03-14T20:31:24.436Z,10.26
2018-03-14T20:37:15.064Z,10.04
2018-03-14T20:43:05.696Z,8.41
2018-03-14T20:48:56.259Z,11.67
2018-03-14T20:54:46.912Z,11.95
2018-03-14T21:00:37.545Z,11.38
2018-03-14T21:06:28.186Z,10.08
2018-03-14T21:12:18.836Z,10.6
2018-03-14T21:18:09.426Z,9.35
2018-03-14T21:24:00.008Z,9.55
2018-03-14T21:29:50.659Z,9.27
2018-03-14T21:35:41.295Z,9.24
2018-03-14T21:41:31.941Z,9.69
2018-03-14T21:47:22.520Z,8.46
2018-03-14T21:53:13.221Z,8.74
2018-03-14T21:59:03.819Z,8.86
2018-03-14T22:04:54.420Z,8.23
2018-03-14T22:10:45.156Z,8.79
2018-03-14T22:16:35.748Z,8.34
2018-03-14T22:22:26.289Z,8.13
2018-03-14T22:28:16.935Z,8.59
2018-03-14T22:34:07.582Z,9.56
2018-03-14T22:39:58.206Z,9.26
2018-03-14T22:45:48.823Z,9.41
2018-03-14T22:51:39.442Z,9.88
2018-03-14T22:57:30.032Z,9.21
2018-03-14T23:03:20.610Z,8.8
2018-03-14T23:09:11.246Z,10.69
2018-03-14T23:15:01.886Z,9.8
2018-03-14T23:20:52.444Z,9.17
2018-03-14T23:26:43.110Z,9.21
2018-03-14T23:32:33.698Z,9.77
2018-03-14T23:38:24.305Z,7.59
2018-03-14T23:44:14.958Z,8.41
2018-03-14T23:50:05.617Z,8.97
2018-03-14T23:55:56.190Z,7.48
